Time;durP1;ratioP1;P1;durP2;ratioP2;P2;SDS_P1;SDS_P2;PMS_P1;PMS_P2;Temp;Humidity;BMP_temperature;BMP_pressure;BME280_temperature;BME280_humidity;BME280_pressure;Samples;Min_cycle;Max_cycle;Signal;HPM_P1;HPM_P2
2022/09/21 00:00:23;;;;;;;5.07;3.67;;;9.10;85.10;;;;;;5071226;28;20269;-64
2022/09/21 00:02:56;;;;;;;4.90;3.35;;;9.10;85.70;;;;;;5071973;28;20251;-64
2022/09/21 00:05:23;;;;;;;5.38;3.42;;;9.10;85.50;;;;;;5071735;28;20198;-64
2022/09/21 00:07:50;;;;;;;11.82;3.97;;;9.10;86.10;;;;;;5072037;28;20198;-64
2022/09/21 00:10:18;;;;;;;4.65;2.88;;;9.10;86.90;;;;;;5071751;28;20194;-64
2022/09/21 00:12:47;;;;;;;6.72;3.70;;;9.10;86.90;;;;;;5071730;28;20198;-65
2022/09/21 00:15:16;;;;;;;7.10;4.10;;;9.00;87.00;;;;;;5071725;28;20190;-64
2022/09/21 00:17:44;;;;;;;5.97;4.40;;;9.00;87.40;;;;;;5070586;28;20253;-64
2022/09/21 00:20:13;;;;;;;6.70;4.53;;;9.00;87.50;;;;;;5071901;28;20186;-64
2022/09/21 00:22:40;;;;;;;10.35;4.63;;;9.00;87.50;;;;;;5071859;28;20648;-66
2022/09/21 00:25:08;;;;;;;12.05;4.40;;;9.00;87.30;;;;;;5069976;28;20632;-64
2022/09/21 00:27:36;;;;;;;6.93;4.05;;;8.90;87.00;;;;;;5071201;28;20193;-64
2022/09/21 00:30:05;;;;;;;7.80;4.43;;;8.90;87.00;;;;;;5071696;28;20248;-63
2022/09/21 00:32:35;;;;;;;7.13;3.65;;;8.90;86.90;;;;;;5071870;28;20550;-64
2022/09/21 00:35:04;;;;;;;7.90;3.88;;;8.90;87.00;;;;;;5069441;28;20566;-64
2022/09/21 00:37:33;;;;;;;5.55;3.70;;;8.80;86.70;;;;;;5071266;28;20221;-64
2022/09/21 00:40:00;;;;;;;4.88;3.30;;;8.80;86.70;;;;;;5071518;28;20535;-64
2022/09/21 00:42:29;;;;;;;5.35;2.90;;;8.70;86.90;;;;;;5071497;28;20584;-64
2022/09/21 00:44:56;;;;;;;5.80;3.30;;;8.70;86.90;;;;;;5071853;28;20228;-64
2022/09/21 00:47:30;;;;;;;6.57;3.40;;;8.70;86.60;;;;;;5070798;28;20217;-64
2022/09/21 00:50:00;;;;;;;4.50;3.00;;;8.60;86.60;;;;;;5071352;28;20189;-64
2022/09/21 00:52:33;;;;;;;4.25;3.45;;;8.60;86.00;;;;;;5071027;28;20186;-64
2022/09/21 00:55:05;;;;;;;5.38;3.10;;;8.50;85.80;;;;;;5071680;28;20194;-64
2022/09/21 00:57:34;;;;;;;4.85;3.55;;;8.40;85.60;;;;;;5071194;28;20214;-64
2022/09/21 01:00:05;;;;;;;5.30;3.30;;;8.30;85.50;;;;;;5071221;28;20193;-64
2022/09/21 01:02:34;;;;;;;10.35;3.75;;;8.30;86.30;;;;;;5071448;28;20201;-64
2022/09/21 01:05:02;;;;;;;3.72;2.90;;;8.30;86.30;;;;;;5070911;28;20263;-65
2022/09/21 01:07:35;;;;;;;7.40;2.75;;;8.20;85.80;;;;;;5071339;28;20526;-65
2022/09/21 01:10:06;;;;;;;3.92;3.40;;;8.10;85.20;;;;;;5069732;28;20724;-64
2022/09/21 01:12:50;;;;;;;21.45;3.60;;;8.00;85.80;;;;;;5072178;28;20190;-64
2022/09/21 01:15:28;;;;;;;5.70;3.30;;;7.90;86.50;;;;;;5074631;28;20189;-63
2022/09/21 01:18:01;;;;;;;4.43;3.28;;;7.90;86.70;;;;;;5074811;28;20217;-64
2022/09/21 01:21:16;;;;;;;2.90;2.40;;;7.70;87.50;;;;;;5074275;28;20201;-63
2022/09/21 01:24:18;;;;;;;4.00;2.95;;;7.70;88.30;;;;;;5012247;28;20254;-64
2022/09/21 01:27:02;;;;;;;4.65;3.35;;;7.60;89.20;;;;;;5039812;28;20193;-65
2022/09/21 01:29:37;;;;;;;6.47;3.60;;;7.60;89.10;;;;;;5054711;28;20772;-64
2022/09/21 01:32:08;;;;;;;6.03;3.58;;;7.60;90.00;;;;;;5057347;28;20355;-63
2022/09/21 01:34:43;;;;;;;7.03;3.63;;;7.70;89.60;;;;;;5074170;28;20186;-63
2022/09/21 01:37:14;;;;;;;6.50;3.72;;;7.60;90.30;;;;;;5074367;28;20212;-64
2022/09/21 01:39:45;;;;;;;7.95;4.00;;;7.60;90.40;;;;;;5074540;28;20202;-64
2022/09/21 01:42:14;;;;;;;4.70;3.15;;;7.60;90.40;;;;;;5074105;28;20290;-63
2022/09/21 01:44:46;;;;;;;5.68;3.00;;;7.60;89.80;;;;;;5074579;28;20596;-65
2022/09/21 01:47:14;;;;;;;4.35;2.92;;;7.50;90.00;;;;;;5073797;28;20555;-63
2022/09/21 01:49:47;;;;;;;5.88;2.70;;;7.50;90.20;;;;;;5074151;28;20196;-64
2022/09/21 01:52:20;;;;;;;7.57;3.20;;;7.50;90.30;;;;;;5073762;28;20186;-63
2022/09/21 01:54:50;;;;;;;7.68;2.55;;;7.40;90.20;;;;;;5074141;28;20190;-64
2022/09/21 01:57:26;;;;;;;6.47;3.15;;;7.30;90.10;;;;;;5073274;28;20656;-64
2022/09/21 01:59:57;;;;;;;5.47;3.40;;;7.30;90.20;;;;;;5073687;28;20189;-63
2022/09/21 02:02:31;;;;;;;5.38;3.40;;;7.30;90.00;;;;;;5073541;28;20197;-63
2022/09/21 02:05:00;;;;;;;6.68;4.10;;;7.20;89.40;;;;;;5074021;28;20201;-63
2022/09/21 02:07:27;;;;;;;3.50;2.72;;;7.20;89.80;;;;;;5073802;28;20240;-64
2022/09/21 02:09:54;;;;;;;5.80;3.50;;;7.20;89.80;;;;;;5073292;28;20247;-64
2022/09/21 02:12:22;;;;;;;3.95;2.67;;;7.20;89.90;;;;;;5073580;28;20230;-64
2022/09/21 02:14:54;;;;;;;4.65;3.22;;;7.20;90.00;;;;;;5053827;28;20190;-63
2022/09/21 02:17:36;;;;;;;4.05;3.03;;;7.20;89.20;;;;;;5053935;28;20281;-63
2022/09/21 02:20:14;;;;;;;8.05;3.55;;;7.10;88.80;;;;;;5054137;28;20293;-64
2022/09/21 02:22:51;;;;;;;9.00;2.97;;;7.00;89.00;;;;;;5060216;28;20192;-63
2022/09/21 02:25:28;;;;;;;3.00;2.50;;;7.00;89.20;;;;;;5072920;28;20185;-64
2022/09/21 02:27:59;;;;;;;4.90;2.65;;;6.90;89.90;;;;;;5073350;28;20243;-64
2022/09/21 02:30:27;;;;;;;4.55;2.60;;;6.90;90.00;;;;;;5072587;28;20260;-63
2022/09/21 02:33:00;;;;;;;5.15;3.85;;;6.80;90.00;;;;;;5073415;28;20189;-63
2022/09/21 02:35:35;;;;;;;5.63;2.88;;;6.70;90.30;;;;;;5073112;28;20204;-63
2022/09/21 02:38:10;;;;;;;4.20;2.72;;;6.60;90.60;;;;;;5073545;28;20225;-63
2022/09/21 02:40:41;;;;;;;4.82;2.92;;;6.50;90.90;;;;;;5072965;28;20204;-64
2022/09/21 02:43:12;;;;;;;4.15;2.60;;;6.60;90.90;;;;;;5073134;28;20201;-64
2022/09/21 02:45:45;;;;;;;4.45;2.45;;;6.60;90.90;;;;;;5072716;28;20181;-64
2022/09/21 02:48:18;;;;;;;3.22;2.45;;;6.50;91.10;;;;;;5072815;28;20316;-64
2022/09/21 02:50:48;;;;;;;6.95;3.65;;;6.60;91.20;;;;;;5071939;28;20193;-64
2022/09/21 02:53:20;;;;;;;8.00;3.38;;;6.50;91.20;;;;;;5073123;28;20217;-64
2022/09/21 02:55:50;;;;;;;4.13;3.30;;;6.50;91.10;;;;;;5072414;28;20182;-64
2022/09/21 02:58:20;;;;;;;6.00;3.20;;;6.40;91.20;;;;;;5072829;28;20285;-63
2022/09/21 03:00:47;;;;;;;5.93;3.42;;;6.50;91.30;;;;;;5072437;28;20185;-63
2022/09/21 03:03:17;;;;;;;8.70;2.40;;;6.50;91.30;;;;;;5072695;28;20263;-64
2022/09/21 03:05:46;;;;;;;4.45;3.15;;;6.50;91.20;;;;;;5072282;28;20236;-63
2022/09/21 03:08:13;;;;;;;5.85;3.90;;;6.50;91.30;;;;;;5072670;28;20228;-64
2022/09/21 03:10:41;;;;;;;7.95;5.75;;;6.50;91.20;;;;;;5070305;28;20185;-64
2022/09/21 03:13:09;;;;;;;11.88;7.35;;;6.50;91.20;;;;;;5072689;28;20193;-64
2022/09/21 03:15:36;;;;;;;11.18;6.30;;;6.50;91.20;;;;;;5072100;28;20268;-64
2022/09/21 03:18:04;;;;;;;8.80;6.30;;;6.50;91.20;;;;;;5072626;28;20661;-63
2022/09/21 03:20:33;;;;;;;7.68;5.85;;;6.60;91.00;;;;;;5071695;28;20181;-63
2022/09/21 03:23:00;;;;;;;5.50;4.15;;;6.50;91.00;;;;;;5072436;28;20193;-63
2022/09/21 03:25:28;;;;;;;7.05;4.43;;;6.60;90.90;;;;;;5072065;28;20185;-63
2022/09/21 03:27:56;;;;;;;6.40;4.10;;;6.60;91.00;;;;;;5072256;28;20198;-64
2022/09/21 03:30:24;;;;;;;5.90;3.78;;;6.60;90.60;;;;;;5071932;28;20193;-64
2022/09/21 03:32:51;;;;;;;5.10;2.85;;;6.50;90.40;;;;;;5071759;28;20214;-63
2022/09/21 03:35:19;;;;;;;5.70;3.13;;;6.50;90.40;;;;;;5071249;28;20190;-63
2022/09/21 03:37:49;;;;;;;6.63;3.30;;;6.50;90.40;;;;;;5072126;28;20190;-64
2022/09/21 03:40:16;;;;;;;3.53;2.70;;;6.40;90.40;;;;;;5071812;28;20196;-63
2022/09/21 03:42:45;;;;;;;9.45;3.70;;;6.40;90.20;;;;;;5071329;28;20182;-63
2022/09/21 03:45:12;;;;;;;7.82;3.05;;;6.30;90.10;;;;;;5071879;28;20186;-64
2022/09/21 03:47:41;;;;;;;5.10;3.30;;;6.30;90.10;;;;;;5071984;28;20217;-64
2022/09/21 03:50:09;;;;;;;4.90;2.90;;;6.30;90.40;;;;;;5071923;28;20217;-64
2022/09/21 03:52:37;;;;;;;4.68;2.97;;;6.30;90.50;;;;;;5071641;28;20553;-63
2022/09/21 03:55:07;;;;;;;3.88;2.60;;;6.30;90.60;;;;;;5071426;28;20269;-64
2022/09/21 03:57:35;;;;;;;3.40;2.60;;;6.30;90.40;;;;;;5072169;28;20236;-63
2022/09/21 04:00:03;;;;;;;5.07;3.15;;;6.30;90.00;;;;;;5071966;28;20609;-63
2022/09/21 04:02:31;;;;;;;6.43;3.70;;;6.20;90.40;;;;;;5071795;28;20185;-63
2022/09/21 04:04:58;;;;;;;4.78;3.13;;;6.10;90.60;;;;;;5072387;28;20194;-63
2022/09/21 04:07:26;;;;;;;5.15;3.95;;;6.10;90.30;;;;;;5072198;28;20181;-63
2022/09/21 04:09:54;;;;;;;5.75;4.95;;;6.00;90.30;;;;;;5072374;28;20687;-64
2022/09/21 04:12:23;;;;;;;7.22;4.55;;;6.00;90.40;;;;;;5071562;28;20178;-63
2022/09/21 04:14:50;;;;;;;8.90;4.75;;;6.00;90.60;;;;;;5072045;28;20189;-63
2022/09/21 04:17:17;;;;;;;6.60;4.38;;;6.00;90.60;;;;;;5072019;28;20909;-63
2022/09/21 04:19:44;;;;;;;5.53;4.47;;;5.90;90.50;;;;;;5072357;28;20224;-63
2022/09/21 04:22:12;;;;;;;5.93;3.70;;;5.90;90.50;;;;;;5071924;28;20232;-63
2022/09/21 04:24:40;;;;;;;7.47;3.58;;;5.90;90.50;;;;;;5072269;28;20197;-64
2022/09/21 04:27:07;;;;;;;8.77;3.22;;;6.00;91.00;;;;;;5071955;28;20543;-63
2022/09/21 04:29:36;;;;;;;4.95;3.60;;;6.00;90.70;;;;;;5052267;28;20214;-62
2022/09/21 04:32:04;;;;;;;5.78;3.30;;;5.90;90.80;;;;;;5052299;28;20186;-63
2022/09/21 04:34:32;;;;;;;4.30;3.42;;;6.00;90.80;;;;;;5071416;28;20182;-63
2022/09/21 04:36:59;;;;;;;3.60;2.80;;;6.00;90.50;;;;;;5072022;28;20700;-63
2022/09/21 04:39:26;;;;;;;4.80;3.25;;;5.90;89.90;;;;;;5070334;28;20250;-63
2022/09/21 04:41:54;;;;;;;4.25;3.50;;;5.80;89.10;;;;;;5069407;28;20283;-63
2022/09/21 04:44:21;;;;;;;5.90;3.90;;;5.80;89.00;;;;;;5069874;28;20190;-63
2022/09/21 04:46:50;;;;;;;4.63;3.47;;;5.70;89.20;;;;;;5070900;28;20214;-64
2022/09/21 04:49:20;;;;;;;7.03;3.35;;;5.70;89.00;;;;;;5073814;28;20225;-64
2022/09/21 04:51:48;;;;;;;4.50;3.78;;;5.70;89.50;;;;;;5073107;28;20194;-64
2022/09/21 04:54:15;;;;;;;4.50;3.47;;;5.60;89.60;;;;;;5073823;28;20194;-63
2022/09/21 04:56:42;;;;;;;5.50;3.40;;;5.60;89.00;;;;;;5073590;28;20619;-63
2022/09/21 04:59:09;;;;;;;4.63;3.30;;;5.60;88.40;;;;;;5073841;28;20223;-63
2022/09/21 05:01:36;;;;;;;8.23;3.65;;;5.50;88.30;;;;;;5071794;28;20248;-64
2022/09/21 05:04:05;;;;;;;3.92;2.60;;;5.50;88.10;;;;;;5074087;28;20235;-63
2022/09/21 05:06:33;;;;;;;3.70;3.08;;;5.50;88.20;;;;;;5073783;28;20194;-63
2022/09/21 05:11:45;;;;;;;9.82;3.50;;;5.40;88.10;;;;;;5070797;28;20213;-63
2022/09/21 05:14:12;;;;;;;5.93;3.58;;;5.30;88.60;;;;;;5073652;28;20194;-63
2022/09/21 05:16:40;;;;;;;5.93;5.10;;;5.30;89.20;;;;;;5073104;28;20240;-63
2022/09/21 05:19:08;;;;;;;7.32;5.70;;;;;;;;;;5072291;28;20229;-67
2022/09/21 05:21:36;;;;;;;7.57;5.32;;;;;;;;;;5073512;28;20667;-63
2022/09/21 05:24:04;;;;;;;21.90;5.15;;;;;;;;;;5071249;28;20280;-64
2022/09/21 05:26:31;;;;;;;5.50;4.80;;;;;;;;;;5071297;28;20244;-63
2022/09/21 05:28:59;;;;;;;8.35;3.67;;;;;;;;;;5067925;28;20221;-64
2022/09/21 05:31:33;;;;;;;5.03;3.90;;;;;;;;;;5064877;28;20194;-63
2022/09/21 05:34:06;;;;;;;4.22;2.95;;;;;;;;;;5068273;28;20651;-62
2022/09/21 05:36:40;;;;;;;4.40;3.47;;;;;;;;;;5072951;28;20225;-63
2022/09/21 05:39:08;;;;;;;6.05;4.82;;;;;;;;;;5072954;28;20270;-63
2022/09/21 05:41:36;;;;;;;6.88;4.65;;;;;;;;;;5068654;28;20194;-64
2022/09/21 05:44:06;;;;;;;5.95;4.45;;;;;;;;;;5069797;28;20201;-63
2022/09/21 05:46:37;;;;;;;4.85;3.90;;;;;;;;;;5071501;28;20278;-63
2022/09/21 05:49:07;;;;;;;5.90;4.30;;;;;;;;;;5071797;28;20316;-63
2022/09/21 05:51:39;;;;;;;5.13;2.88;;;;;;;;;;5072761;28;20190;-62
2022/09/21 05:54:12;;;;;;;4.22;3.22;;;;;;;;;;5072155;28;20209;-63
2022/09/21 05:56:46;;;;;;;3.28;2.67;;;;;;;;;;5070958;28;20201;-63
2022/09/21 05:59:27;;;;;;;14.00;8.68;;;;;;;;;;5068249;28;20197;-67
2022/09/21 06:01:59;;;;;;;7.03;4.32;;;;;;;;;;5069564;28;20548;-62
2022/09/21 06:04:27;;;;;;;4.10;3.50;;;;;;;;;;5070841;28;20251;-63
2022/09/21 06:06:55;;;;;;;3.53;2.90;;;;;;;;;;5071603;28;20192;-63
2022/09/21 06:09:24;;;;;;;5.10;2.38;;;;;;;;;;5070948;28;20218;-63
2022/09/21 06:11:52;;;;;;;3.65;2.40;;;;;;;;;;5071353;28;20240;-63
2022/09/21 06:14:25;;;;;;;4.90;3.20;;;;;;;;;;5071433;28;20621;-63
2022/09/21 06:16:53;;;;;;;5.22;3.10;;;;;;;;;;5071268;28;20354;-63
2022/09/21 06:19:20;;;;;;;4.13;2.88;;;;;;;;;;5071590;28;20652;-63
2022/09/21 06:21:47;;;;;;;8.88;3.63;;;;;;;;;;5071770;28;20189;-63
2022/09/21 06:24:15;;;;;;;5.00;2.80;;;;;;;;;;5074614;28;20196;-63
2022/09/21 06:26:43;;;;;;;6.10;3.10;;;;;;;;;;5072928;28;20182;-63
2022/09/21 06:29:11;;;;;;;6.18;3.67;;;;;;;;;;5074736;28;20251;-63
2022/09/21 06:31:38;;;;;;;13.38;9.25;;;;;;;;;;5072514;28;20277;-63
2022/09/21 06:34:05;;;;;;;37.60;21.17;;;;;;;;;;5074048;28;20190;-63
2022/09/21 06:36:32;;;;;;;21.35;14.52;;;;;;;;;;5074018;28;20614;-63
2022/09/21 06:38:59;;;;;;;8.15;6.45;;;;;;;;;;5074284;28;20193;-63
2022/09/21 06:41:27;;;;;;;4.28;3.85;;;;;;;;;;5073922;28;20228;-64
2022/09/21 06:43:56;;;;;;;5.75;5.15;;;;;;;;;;5074213;28;20239;-63
2022/09/21 06:46:23;;;;;;;7.50;5.07;;;5.30;89.30;;;;;;5074213;28;20276;-64
2022/09/21 06:48:50;;;;;;;5.32;4.82;;;9.00;91.20;;;;;;5073710;28;20217;-63
2022/09/21 06:51:19;;;;;;;6.88;4.13;;;9.40;90.70;;;;;;5074080;28;20221;-64
2022/09/21 06:53:46;;;;;;;5.00;3.13;;;9.90;90.70;;;;;;5073978;28;20622;-64
2022/09/21 06:56:13;;;;;;;5.20;3.63;;;10.40;88.80;;;;;;5073841;28;20711;-64
2022/09/21 06:58:40;;;;;;;8.27;3.03;;;11.10;83.40;;;;;;5073357;28;20212;-64
2022/09/21 07:01:10;;;;;;;5.68;2.75;;;11.90;88.00;;;;;;5073670;28;20224;-64
2022/09/21 07:03:38;;;;;;;3.50;2.63;;;13.00;79.90;;;;;;5073737;28;20585;-64
2022/09/21 07:06:07;;;;;;;4.07;2.78;;;14.00;74.90;;;;;;5073918;28;20233;-66
2022/09/21 07:08:35;;;;;;;5.95;3.20;;;15.40;70.30;;;;;;5073796;28;20189;-64
2022/09/21 07:11:02;;;;;;;5.00;2.20;;;16.90;66.90;;;;;;5072887;28;20221;-64
2022/09/21 07:13:30;;;;;;;4.73;2.03;;;18.20;60.00;;;;;;5073640;28;20440;-63
2022/09/21 07:15:57;;;;;;;3.67;2.27;;;19.60;52.70;;;;;;5073515;28;20444;-64
2022/09/21 07:18:25;;;;;;;4.93;2.00;;;21.10;50.00;;;;;;5073317;28;20532;-64
2022/09/21 07:20:53;;;;;;;4.63;2.03;;;22.40;44.00;;;;;;5073597;28;20530;-64
2022/09/21 07:23:21;;;;;;;5.37;2.67;;;23.40;43.10;;;;;;5073466;28;20951;-64
2022/09/21 07:25:51;;;;;;;4.03;1.90;;;24.50;39.10;;;;;;5073480;28;20440;-64
2022/09/21 07:28:18;;;;;;;7.77;2.40;;;25.60;40.10;;;;;;5073452;28;20496;-64
2022/09/21 07:30:45;;;;;;;5.70;2.60;;;26.90;39.20;;;;;;5073057;28;21051;-65
2022/09/21 07:33:12;;;;;;;4.30;2.60;;;28.10;39.70;;;;;;5073359;28;20832;-65
2022/09/21 07:35:40;;;;;;;4.53;2.30;;;29.00;38.10;;;;;;5073439;28;20523;-66
2022/09/21 07:38:07;;;;;;;3.90;2.10;;;30.10;34.90;;;;;;5072907;28;20479;-65
2022/09/21 07:40:35;;;;;;;4.83;2.40;;;31.10;31.80;;;;;;5073238;28;20431;-65
2022/09/21 07:43:02;;;;;;;4.50;2.80;;;32.10;26.70;;;;;;5073138;28;20468;-65
2022/09/21 07:45:29;;;;;;;6.13;2.87;;;33.20;25.70;;;;;;5073254;28;20518;-65
2022/09/21 07:47:56;;;;;;;4.33;2.10;;;34.10;31.30;;;;;;5073073;28;20476;-65
2022/09/21 07:50:23;;;;;;;6.23;2.10;;;34.60;29.60;;;;;;5073186;28;20822;-65
2022/09/21 07:52:51;;;;;;;3.63;2.10;;;35.20;27.90;;;;;;5073148;28;20851;-63
2022/09/21 07:55:18;;;;;;;4.67;2.20;;;35.60;28.00;;;;;;5073114;28;20463;-63
2022/09/21 08:00:33;;;;;;;4.80;2.20;;;37.10;23.50;;;;;;5072813;28;20988;-63
2022/09/21 08:03:00;;;;;;;2.37;1.50;;;38.00;22.60;;;;;;5072955;28;20450;-63
2022/09/21 08:05:27;;;;;;;3.87;1.47;;;38.70;21.20;;;;;;5072954;28;20918;-62
2022/09/21 08:07:57;;;;;;;7.27;1.60;;;39.30;20.70;;;;;;5073064;28;20526;-62
2022/09/21 08:10:27;;;;;;;3.67;1.70;;;39.80;19.30;;;;;;5072526;28;20443;-63
2022/09/21 08:12:54;;;;;;;8.10;2.00;;;40.40;18.80;;;;;;5072931;28;20436;-63
2022/09/21 08:15:21;;;;;;;6.00;1.60;;;41.00;16.60;;;;;;5072937;28;20440;-62
2022/09/21 08:17:50;;;;;;;3.97;1.57;;;41.70;16.30;;;;;;5072759;28;20923;-63
2022/09/21 08:20:17;;;;;;;4.97;2.10;;;42.20;15.90;;;;;;5072814;28;20487;-62
2022/09/21 08:22:44;;;;;;;3.90;1.90;;;42.70;15.10;;;;;;5076425;28;20485;-62
2022/09/21 08:25:12;;;;;;;5.40;2.17;;;43.10;14.40;;;;;;5076607;28;20527;-62
2022/09/21 08:27:41;;;;;;;2.77;1.70;;;43.50;13.80;;;;;;5076272;28;20530;-64
2022/09/21 08:30:12;;;;;;;4.63;1.90;;;43.90;13.50;;;;;;5076691;28;20530;-63
2022/09/21 08:32:39;;;;;;;4.70;2.47;;;44.30;13.30;;;;;;5076763;28;20436;-62
2022/09/21 08:35:08;;;;;;;4.30;1.80;;;44.70;13.80;;;;;;5076581;28;20458;-63
2022/09/21 08:37:36;;;;;;;4.97;2.33;;;45.00;12.80;;;;;;5076658;28;20526;-63
2022/09/21 08:40:04;;;;;;;3.07;2.13;;;45.40;13.00;;;;;;5076651;28;20535;-63
2022/09/21 08:42:40;;;;;;;5.37;2.10;;;45.80;12.60;;;;;;5076185;28;20930;-62
2022/09/21 08:45:15;;;;;;;4.40;1.90;;;46.10;12.40;;;;;;5076682;28;20469;-63
2022/09/21 08:47:45;;;;;;;3.27;1.80;;;46.50;12.10;;;;;;5076173;28;20856;-63
2022/09/21 08:50:29;;;;;;;2.53;1.37;;;46.80;11.70;;;;;;5076490;28;20442;-65
2022/09/21 08:53:01;;;;;;;5.33;1.80;;;46.70;11.60;;;;;;5076372;28;20439;-63
2022/09/21 08:55:28;;;;;;;3.90;1.47;;;46.80;11.20;;;;;;5076074;28;20535;-63
2022/09/21 08:57:56;;;;;;;4.20;1.60;;;47.30;11.50;;;;;;5076180;28;20530;-62
2022/09/21 09:00:23;;;;;;;3.33;2.00;;;47.70;11.40;;;;;;5076204;28;20526;-62
2022/09/21 09:03:11;;;;;;;3.37;1.67;;;48.20;11.00;;;;;;5076051;28;20439;-62
2022/09/21 09:05:47;;;;;;;5.10;2.00;;;48.50;10.60;;;;;;5076244;28;20522;-63
2022/09/21 09:08:35;;;;;;;6.90;1.63;;;48.60;10.40;;;;;;5075831;28;20771;-63
2022/09/21 09:11:15;;;;;;;4.67;2.00;;;48.80;9.60;;;;;;5076042;28;20515;-63
2022/09/21 09:14:04;;;;;;;3.13;1.47;;;48.80;9.40;;;;;;5075714;28;20432;-63
2022/09/21 09:16:42;;;;;;;3.70;1.50;;;48.80;9.40;;;;;;5075995;28;20538;-62
2022/09/21 09:19:20;;;;;;;3.07;2.33;;;48.80;9.40;;;;;;5075860;28;20501;-63
2022/09/21 09:21:47;;;;;;;5.50;2.07;;;49.20;9.60;;;;;;5075721;28;20489;-63
2022/09/21 09:24:21;;;;;;;3.10;1.40;;;49.70;9.60;;;;;;5075539;28;20539;-62
2022/09/21 09:26:54;;;;;;;2.30;1.30;;;49.80;8.90;;;;;;5075667;28;20439;-62
2022/09/21 09:29:29;;;;;;;3.83;1.60;;;49.80;8.60;;;;;;5075587;28;20432;-62
2022/09/21 09:31:59;;;;;;;2.60;1.37;;;49.80;8.70;;;;;;5075734;28;20567;-62
2022/09/21 09:34:32;;;;;;;4.20;1.20;;;49.90;7.80;;;;;;5074883;28;20440;-62
2022/09/21 09:37:08;;;;;;;2.57;1.33;;;50.00;8.40;;;;;;5075575;28;20877;-63
2022/09/21 09:39:35;;;;;;;5.03;1.30;;;50.10;8.20;;;;;;5075543;28;20439;-67
2022/09/21 09:42:33;;;;;;;2.20;1.10;;;50.20;7.90;;;;;;5075221;28;20448;-63
2022/09/21 09:45:25;;;;;;;2.40;1.10;;;50.20;8.80;;;;;;5075317;28;20467;-63
2022/09/21 09:48:09;;;;;;;2.63;0.87;;;50.70;8.30;;;;;;5070707;28;20488;-63
2022/09/21 09:50:38;;;;;;;2.73;1.27;;;50.80;7.30;;;;;;5073848;28;20533;-64
2022/09/21 09:53:10;;;;;;;2.93;1.20;;;51.30;7.90;;;;;;5073762;28;20528;-65
2022/09/21 09:55:41;;;;;;;2.50;1.20;;;51.70;6.70;;;;;;5070387;28;20514;-64
2022/09/21 09:58:17;;;;;;;3.43;1.40;;;51.90;6.80;;;;;;5070499;28;20533;-64
2022/09/21 10:00:47;;;;;;;2.30;0.97;;;51.90;8.20;;;;;;5073926;28;20533;-64
2022/09/21 10:03:19;;;;;;;5.50;1.10;;;51.90;6.80;;;;;;5073858;28;20924;-65
2022/09/21 10:05:46;;;;;;;2.20;1.10;;;52.20;7.20;;;;;;5073716;28;20443;-65
2022/09/21 10:08:30;;;;;;;2.80;1.00;;;52.50;6.40;;;;;;5073761;28;20971;-64
2022/09/21 10:10:57;;;;;;;5.90;1.20;;;52.50;6.40;;;;;;5071772;28;20511;-64
2022/09/21 10:13:28;;;;;;;3.80;1.30;;;52.40;6.60;;;;;;5073425;28;20450;-64
2022/09/21 10:15:59;;;;;;;2.80;0.90;;;52.40;6.30;;;;;;5073725;28;20490;-64
2022/09/21 10:18:33;;;;;;;2.00;0.80;;;52.00;6.60;;;;;;5073291;28;20471;-64
2022/09/21 10:21:02;;;;;;;2.10;0.90;;;52.10;6.70;;;;;;5073619;28;20948;-64
2022/09/21 10:23:31;;;;;;;2.63;0.90;;;52.50;6.80;;;;;;5071441;28;21390;-64
2022/09/21 10:26:01;;;;;;;3.47;1.30;;;52.60;6.10;;;;;;5073152;28;20856;-64
2022/09/21 10:28:29;;;;;;;2.50;1.20;;;52.70;6.50;;;;;;5072910;28;20452;-64
2022/09/21 10:31:21;;;;;;;2.40;1.00;;;52.70;6.30;;;;;;5073124;28;20483;-64
2022/09/21 10:33:51;;;;;;;6.10;1.00;;;52.90;6.60;;;;;;5073044;28;20472;-64
2022/09/21 10:36:37;;;;;;;2.60;1.03;;;53.00;6.50;;;;;;5073054;28;20468;-64
2022/09/21 10:39:26;;;;;;;3.33;1.10;;;53.10;5.90;;;;;;5072321;28;20446;-64
2022/09/21 10:42:00;;;;;;;2.57;1.20;;;53.30;6.90;;;;;;5069164;28;20470;-64
2022/09/21 10:44:34;;;;;;;2.60;1.10;;;53.70;6.30;;;;;;5071323;28;20443;-64
2022/09/21 10:47:18;;;;;;;1.87;0.80;;;53.60;6.10;;;;;;5072592;28;20440;-64
2022/09/21 10:49:49;;;;;;;3.20;1.03;;;53.50;6.80;;;;;;5072171;28;20480;-64
2022/09/21 10:52:17;;;;;;;1.90;1.00;;;53.70;5.90;;;;;;5072650;28;20570;-64
2022/09/21 10:54:47;;;;;;;2.10;1.00;;;53.90;6.00;;;;;;5072713;28;20440;-64
2022/09/21 10:57:17;;;;;;;2.20;0.93;;;54.00;5.40;;;;;;5073211;28;20969;-65
2022/09/21 10:59:44;;;;;;;5.17;0.90;;;53.50;5.80;;;;;;5073288;28;20468;-64
2022/09/21 11:02:41;;;;;;;3.80;1.00;;;53.40;5.90;;;;;;5073490;28;20501;-64
2022/09/21 11:05:14;;;;;;;3.63;1.10;;;52.00;6.00;;;;;;5073892;28;20581;-65
2022/09/21 11:07:48;;;;;;;1.87;0.90;;;51.60;5.80;;;;;;5073278;28;20447;-64
2022/09/21 11:10:23;;;;;;;1.80;0.90;;;52.00;6.40;;;;;;5073319;28;20523;-64
2022/09/21 11:13:02;;;;;;;2.00;0.90;;;52.40;5.70;;;;;;5073498;28;20989;-64
2022/09/21 11:15:38;;;;;;;1.90;0.80;;;52.00;5.00;;;;;;5073549;28;20442;-64
2022/09/21 11:18:13;;;;;;;2.10;0.90;;;49.50;6.00;;;;;;5073194;28;20553;-63
2022/09/21 11:20:47;;;;;;;2.40;0.83;;;49.40;6.50;;;;;;5073654;28;20431;-64
2022/09/21 11:23:23;;;;;;;2.03;0.90;;;49.90;6.80;;;;;;5073329;28;20451;-64
2022/09/21 11:25:56;;;;;;;2.20;0.80;;;50.50;6.30;;;;;;5073189;28;20865;-64
2022/09/21 11:28:28;;;;;;;2.70;1.30;;;51.30;7.00;;;;;;5072855;28;20952;-64
2022/09/21 11:31:34;;;;;;;3.27;0.83;;;51.80;5.80;;;;;;5073046;28;21527;-64
2022/09/21 11:34:30;;;;;;;2.63;0.90;;;52.20;6.20;;;;;;5073388;28;20519;-64
2022/09/21 11:37:15;;;;;;;1.80;0.60;;;52.40;5.90;;;;;;5073078;28;20452;-64
2022/09/21 11:39:57;;;;;;;2.00;0.70;;;52.50;6.10;;;;;;5073333;28;20444;-65
2022/09/21 11:42:39;;;;;;;2.47;1.20;;;52.50;5.80;;;;;;5073067;28;20479;-64
2022/09/21 11:45:20;;;;;;;2.90;0.70;;;52.50;5.10;;;;;;5073083;28;20432;-65
2022/09/21 11:48:01;;;;;;;1.90;0.70;;;52.00;5.40;;;;;;5072928;28;20542;-64
2022/09/21 11:50:43;;;;;;;2.40;0.93;;;51.90;5.50;;;;;;5073057;28;20463;-63
2022/09/21 11:53:24;;;;;;;2.47;0.90;;;51.70;5.30;;;;;;5073078;28;20440;-66
2022/09/21 11:56:11;;;;;;;2.20;0.80;;;51.40;5.80;;;;;;5072184;28;20428;-64
2022/09/21 11:58:44;;;;;;;2.10;0.60;;;51.00;6.10;;;;;;5073075;28;20444;-64
2022/09/21 12:01:24;;;;;;;2.83;0.80;;;51.10;6.10;;;;;;5072874;28;20440;-65
2022/09/21 12:04:31;;;;;;;2.47;0.80;;;51.10;6.10;;;;;;5072898;28;20526;-64
2022/09/21 12:07:22;;;;;;;2.00;0.90;;;51.20;6.50;;;;;;5030117;28;20445;-64
2022/09/21 12:10:22;;;;;;;2.27;0.90;;;51.10;5.80;;;;;;5059695;28;20531;-64
2022/09/21 12:12:57;;;;;;;2.80;0.90;;;50.90;6.00;;;;;;5072607;28;20570;-64
2022/09/21 12:15:31;;;;;;;1.93;0.70;;;50.90;6.60;;;;;;5072641;28;20463;-63
2022/09/21 12:18:07;;;;;;;4.73;0.80;;;50.70;5.60;;;;;;5072573;28;20523;-64
2022/09/21 12:20:48;;;;;;;1.90;0.87;;;50.20;6.20;;;;;;5072897;28;20467;-63
2022/09/21 12:23:20;;;;;;;2.10;0.80;;;50.00;6.30;;;;;;5072693;28;20442;-64
2022/09/21 12:25:52;;;;;;;2.10;0.73;;;49.60;5.80;;;;;;5072518;28;20906;-64
2022/09/21 12:28:24;;;;;;;2.13;0.90;;;49.30;6.20;;;;;;5072444;28;20472;-63
2022/09/21 12:30:56;;;;;;;1.80;0.70;;;48.80;6.10;;;;;;5072501;28;20800;-64
2022/09/21 12:33:32;;;;;;;2.13;1.00;;;48.40;6.50;;;;;;5072749;28;20475;-64
2022/09/21 12:36:03;;;;;;;2.20;0.60;;;48.10;6.60;;;;;;5072700;28;20509;-63
2022/09/21 12:38:40;;;;;;;4.17;0.90;;;47.20;6.90;;;;;;5072517;28;20527;-63
2022/09/21 12:41:14;;;;;;;2.80;1.03;;;46.50;6.70;;;;;;5072421;28;20442;-64
2022/09/21 12:43:46;;;;;;;3.60;0.83;;;43.50;6.90;;;;;;5072660;28;20855;-63
2022/09/21 12:46:17;;;;;;;2.97;1.00;;;42.20;9.30;;;;;;5072720;28;20990;-64
2022/09/21 12:48:44;;;;;;;2.47;0.80;;;42.10;9.60;;;;;;5072394;28;20550;-64
2022/09/21 12:51:16;;;;;;;2.10;0.70;;;41.80;9.20;;;;;;5072321;28;20989;-63
2022/09/21 12:53:47;;;;;;;2.77;0.87;;;41.00;9.30;;;;;;5072377;28;20439;-63
2022/09/21 12:56:28;;;;;;;1.87;0.80;;;40.40;10.00;;;;;;5072506;28;20489;-63
2022/09/21 12:59:13;;;;;;;2.07;0.90;;;39.50;9.70;;;;;;5072556;28;20526;-63
2022/09/21 13:01:46;;;;;;;3.27;1.10;;;38.50;10.30;;;;;;5072511;28;20440;-63
2022/09/21 13:04:40;;;;;;;3.30;0.83;;;37.60;11.60;;;;;;5072532;28;20527;-63
2022/09/21 13:07:50;;;;;;;2.27;0.87;;;36.70;11.60;;;;;;5072543;28;20436;-63
2022/09/21 13:10:30;;;;;;;2.37;0.83;;;35.10;12.50;;;;;;5075945;28;20463;-63
2022/09/21 13:13:00;;;;;;;2.53;1.03;;;33.70;13.00;;;;;;5075796;28;20487;-62
2022/09/21 13:15:31;;;;;;;1.97;0.80;;;32.40;14.20;;;;;;5075920;28;20436;-61
2022/09/21 13:18:00;;;;;;;2.00;1.00;;;31.10;15.90;;;;;;5075864;28;20452;-62
2022/09/21 13:20:33;;;;;;;3.87;0.83;;;30.10;16.40;;;;;;5075836;28;20440;-62
2022/09/21 13:23:01;;;;;;;2.67;1.30;;;29.20;17.50;;;;;;5075904;28;20440;-62
2022/09/21 13:25:33;;;;;;;2.43;1.00;;;28.40;18.60;;;;;;5075904;28;20432;-61
2022/09/21 13:28:08;;;;;;;2.57;0.70;;;27.40;19.00;;;;;;5075701;28;20432;-62
2022/09/21 13:30:41;;;;;;;2.23;0.80;;;26.70;20.20;;;;;;5075689;28;20510;-62
2022/09/21 13:33:37;;;;;;;2.93;1.10;;;26.00;20.20;;;;;;5075571;28;20519;-62
2022/09/21 13:36:34;;;;;;;2.10;0.70;;;25.40;21.20;;;;;;5075726;28;20435;-62